Time;durP1;ratioP1;P1;durP2;ratioP2;P2;SDS_P1;SDS_P2;PMS_P1;PMS_P2;Temp;Humidity;BMP_temperature;BMP_pressure;BME280_temperature;BME280_humidity;BME280_pressure;Samples;Min_cycle;Max_cycle;Signal;HPM_P1;HPM_P2
2022/10/31 00:02:00;;;;;;;8.85;5.60;;;;;;;12.81;59.30;99721.91;4896033;29;20042;-90
2022/10/31 00:04:26;;;;;;;11.27;5.85;;;;;;;12.72;59.40;99718.97;4894191;29;20023;-90
2022/10/31 00:06:51;;;;;;;11.48;5.78;;;;;;;12.84;59.06;99723.25;4888844;29;20039;-90
2022/10/31 00:09:17;;;;;;;12.60;5.57;;;;;;;12.78;59.47;99727.84;4895917;29;20032;-90
2022/10/31 00:11:42;;;;;;;12.55;5.50;;;;;;;12.67;59.08;99710.84;4915022;29;20058;-90
2022/10/31 00:14:08;;;;;;;11.50;5.45;;;;;;;12.99;58.76;99736.72;4895974;29;20031;-90
2022/10/31 00:16:33;;;;;;;12.50;6.05;;;;;;;12.93;58.40;99717.00;4896502;29;20166;-90
2022/10/31 00:19:00;;;;;;;9.95;6.25;;;;;;;12.98;58.36;99724.28;4901546;29;20035;-90
2022/10/31 00:21:26;;;;;;;12.82;5.00;;;;;;;12.91;59.06;99721.09;4903803;29;20118;-90
2022/10/31 00:23:51;;;;;;;12.32;5.68;;;;;;;12.92;59.15;99736.19;4912841;29;20179;-91
2022/10/31 00:26:17;;;;;;;16.52;5.53;;;;;;;12.91;59.62;99730.00;4909540;29;20103;-90
2022/10/31 00:28:42;;;;;;;12.55;6.28;;;;;;;12.91;61.80;99742.72;4912009;29;20520;-90
2022/10/31 00:31:09;;;;;;;9.45;6.03;;;;;;;12.87;61.24;99736.22;4891260;29;20037;-90
2022/10/31 00:33:36;;;;;;;11.43;5.93;;;;;;;12.78;62.04;99729.75;4918086;29;20032;-90
2022/10/31 00:36:02;;;;;;;9.32;5.75;;;;;;;12.91;62.63;99743.50;4892633;29;20038;-90
2022/10/31 00:38:27;;;;;;;10.32;5.43;;;;;;;12.89;62.59;99739.47;4914621;29;20127;-90
2022/10/31 00:40:53;;;;;;;10.43;5.63;;;;;;;12.67;63.79;99728.97;4895738;29;20031;-90
2022/10/31 00:43:18;;;;;;;9.63;5.75;;;;;;;12.78;63.40;99746.75;4914430;29;20035;-90
2022/10/31 00:45:44;;;;;;;9.10;5.75;;;;;;;12.87;64.84;99742.44;4901698;29;20031;-91
2022/10/31 00:48:10;;;;;;;12.70;5.60;;;;;;;12.78;65.18;99735.97;4904694;29;20558;-91
2022/10/31 00:50:35;;;;;;;9.25;5.65;;;;;;;12.80;65.42;99746.50;4897244;29;20062;-90
2022/10/31 00:53:01;;;;;;;11.18;6.28;;;;;;;12.68;65.20;99736.81;4915815;29;20118;-90
2022/10/31 00:55:26;;;;;;;16.85;6.85;;;;;;;12.81;64.59;99754.34;4907092;29;20046;-90
2022/10/31 00:57:52;;;;;;;13.57;6.05;;;;;;;12.64;64.57;99732.22;4916555;29;20027;-91
2022/10/31 01:00:17;;;;;;;12.85;6.40;;;;;;;12.64;65.45;99754.66;4919756;29;20553;-90
2022/10/31 01:02:45;;;;;;;10.57;5.97;;;;;;;12.72;65.87;99762.19;4907125;29;20034;-90
2022/10/31 01:05:11;;;;;;;9.60;5.78;;;;;;;12.73;65.85;99739.47;4913726;29;20034;-90
2022/10/31 01:07:37;;;;;;;10.43;5.35;;;;;;;12.86;66.48;99731.91;4911528;29;20028;-90
2022/10/31 01:10:03;;;;;;;11.82;6.38;;;;;;;12.90;66.04;99733.75;4910333;29;20046;-90
2022/10/31 01:12:29;;;;;;;13.90;5.50;;;;;;;13.09;65.60;99746.69;4899158;29;20495;-90
2022/10/31 01:14:54;;;;;;;10.15;6.20;;;;;;;12.85;66.99;99752.72;4915704;29;20032;-90
2022/10/31 01:17:20;;;;;;;11.73;6.45;;;;;;;12.82;65.36;99741.63;4926841;29;20027;-95
2022/10/31 01:19:45;;;;;;;12.82;6.43;;;;;;;12.66;65.55;99728.16;4926303;29;20035;-96
2022/10/31 01:22:11;;;;;;;11.57;6.20;;;;;;;12.89;65.18;99753.78;4911361;29;20031;-95
2022/10/31 01:24:36;;;;;;;12.43;6.38;;;;;;;12.63;66.16;99727.91;4927083;29;20027;-96
2022/10/31 01:27:02;;;;;;;13.23;6.55;;;;;;;12.57;66.01;99727.09;4942235;29;20027;-96
2022/10/31 01:29:28;;;;;;;15.60;6.47;;;;;;;12.70;65.68;99750.03;4911305;29;20027;-94
2022/10/31 01:31:53;;;;;;;13.38;6.78;;;;;;;12.79;64.97;99745.69;4942432;29;20033;-96
2022/10/31 01:34:19;;;;;;;14.35;6.55;;;;;;;12.84;64.33;99734.06;4926629;29;20035;-96
2022/10/31 01:36:46;;;;;;;12.68;6.80;;;;;;;12.86;65.70;99751.59;4926475;29;20031;-96
2022/10/31 01:39:13;;;;;;;11.07;6.80;;;;;;;12.77;65.53;99749.75;4926970;29;20027;-96
2022/10/31 01:41:41;;;;;;;10.70;6.78;;;;;;;12.74;66.14;99743.81;4910912;29;20027;-96
2022/10/31 01:44:15;;;;;;;13.55;6.93;;;;;;;12.98;65.41;99756.72;4926868;29;20023;-95
2022/10/31 01:46:41;;;;;;;11.93;6.35;;;;;;;13.06;64.97;99761.56;4958232;29;20047;-95
2022/10/31 01:49:30;;;;;;;14.05;7.03;;;;;;;13.00;65.80;99746.44;4955991;28;20027;-96
2022/10/31 01:52:13;;;;;;;13.32;6.30;;;;;;;12.98;64.22;99732.41;4929538;29;20186;-96
2022/10/31 01:54:41;;;;;;;11.15;6.78;;;;;;;12.93;65.43;99751.34;4926825;29;20038;-95
2022/10/31 01:57:07;;;;;;;12.07;5.93;;;;;;;12.84;65.13;99744.88;4911675;29;20027;-95
2022/10/31 01:59:34;;;;;;;9.68;5.85;;;;;;;12.97;64.17;99771.34;4926636;29;20027;-95
2022/10/31 02:02:00;;;;;;;9.93;5.75;;;;;;;12.86;64.17;99756.22;4910161;29;20035;-93
2022/10/31 02:04:25;;;;;;;11.35;4.93;;;;;;;12.88;64.36;99762.97;4941951;29;20027;-96
2022/10/31 02:06:57;;;;;;;11.65;4.63;;;;;;;12.88;62.93;99757.56;4942315;29;20560;-96
2022/10/31 02:09:23;;;;;;;10.52;4.70;;;;;;;12.84;62.48;99753.78;4910768;29;20059;-95
2022/10/31 02:11:52;;;;;;;8.43;4.80;;;;;;;12.93;63.44;99773.78;4926602;29;20027;-95
2022/10/31 02:14:18;;;;;;;10.00;4.55;;;;;;;12.86;62.80;99751.59;4909438;29;20027;-96
2022/10/31 02:16:43;;;;;;;6.60;4.38;;;;;;;13.02;61.97;99760.50;4910879;29;20055;-96
2022/10/31 02:19:09;;;;;;;8.70;5.10;;;;;;;12.97;63.31;99760.53;4910654;29;20027;-95
2022/10/31 02:21:53;;;;;;;10.05;5.50;;;;;;;12.81;64.39;99748.94;4910739;29;20030;-96
2022/10/31 02:24:42;;;;;;;9.27;5.13;;;;;;;12.97;64.22;99775.91;4912199;29;20027;-95
2022/10/31 02:27:21;;;;;;;9.23;5.55;;;;;;;12.90;64.16;99778.91;4940965;29;20039;-94
2022/10/31 02:30:06;;;;;;;9.18;5.05;;;;;;;12.83;64.52;99765.69;4941215;29;20035;-95
2022/10/31 02:32:56;;;;;;;10.57;5.25;;;;;;;12.81;63.89;99758.94;4940692;29;20032;-96
2022/10/31 02:35:41;;;;;;;12.48;4.80;;;;;;;12.72;63.40;99754.09;4913307;29;20429;-96
2022/10/31 02:38:25;;;;;;;12.23;5.13;;;;;;;12.71;63.89;99767.88;4915396;29;20086;-96
2022/10/31 02:41:05;;;;;;;13.90;5.20;;;;;;;12.46;64.40;99734.41;4961532;29;20047;-96
2022/10/31 02:44:24;;;;;;;9.77;4.93;;;;;;;12.42;64.65;99735.22;4947734;29;20054;-96
2022/10/31 02:46:54;;;;;;;11.45;4.68;;;;;;;12.64;64.62;99741.13;4851570;29;20056;-96
2022/10/31 02:49:24;;;;;;;10.13;4.57;;;;;;;12.66;65.49;99728.16;4923873;29;20050;-96
2022/10/31 02:51:50;;;;;;;17.63;4.80;;;;;;;12.69;65.26;99737.59;4911706;29;20507;-95
2022/10/31 02:54:22;;;;;;;10.38;4.80;;;;;;;12.68;64.75;99742.22;4909219;29;20038;-96
2022/10/31 02:56:48;;;;;;;10.43;5.05;;;;;;;12.81;64.94;99764.34;4913521;29;20050;-96
2022/10/31 02:59:13;;;;;;;8.75;5.05;;;;;;;12.77;64.42;99752.47;4926612;29;20027;-95
2022/10/31 03:01:48;;;;;;;9.18;4.38;;;;;;;12.92;63.52;99780.25;4908858;29;20075;-95
2022/10/31 03:04:56;;;;;;;6.72;4.57;;;;;;;12.88;63.65;99779.16;4941126;29;20035;-95
2022/10/31 03:07:52;;;;;;;8.70;4.18;;;;;;;12.74;62.65;99761.91;4846343;29;20038;-95
2022/10/31 03:10:39;;;;;;;9.77;4.20;;;;;;;12.87;62.82;99798.38;4927377;29;20066;-95
2022/10/31 03:13:18;;;;;;;8.02;4.25;;;;;;;12.69;63.16;99795.16;4956780;29;20039;-95
2022/10/31 03:15:44;;;;;;;7.13;4.07;;;;;;;12.49;63.34;99776.25;4940173;29;20042;-95
2022/10/31 03:18:28;;;;;;;7.18;3.72;;;;;;;12.53;62.94;99793.53;4908884;29;20505;-95
2022/10/31 03:21:04;;;;;;;12.75;4.53;;;;;;;12.44;64.74;99809.47;4926555;29;20027;-96
2022/10/31 03:23:30;;;;;;;6.60;3.88;;;;;;;12.23;64.48;99794.38;4909308;29;20038;-96
2022/10/31 03:25:55;;;;;;;7.03;4.30;;;;;;;12.08;65.06;99787.88;4924383;29;20402;-95
2022/10/31 03:28:26;;;;;;;7.70;4.72;;;;;;;12.10;65.27;99803.81;4915806;29;20048;-93
2022/10/31 03:30:51;;;;;;;7.47;4.40;;;;;;;11.93;64.54;99791.34;4891507;29;20561;-93
2022/10/31 03:33:18;;;;;;;9.65;4.25;;;;;;;11.86;65.73;99792.66;4893401;29;20028;-93
2022/10/31 03:35:45;;;;;;;10.75;4.60;;;;;;;11.78;65.28;99799.38;4893117;29;20023;-96
2022/10/31 03:38:11;;;;;;;7.97;4.13;;;;;;;11.88;64.57;99806.69;4890987;29;20028;-94
2022/10/31 03:40:37;;;;;;;6.70;4.15;;;;;;;11.71;65.28;99799.63;4897324;29;20031;-94
2022/10/31 03:43:07;;;;;;;10.55;4.65;;;;;;;11.69;65.01;99803.66;4925701;29;20107;-93
2022/10/31 03:45:33;;;;;;;10.95;4.55;;;;;;;11.72;65.67;99798.56;4916888;29;20548;-94
2022/10/31 03:47:58;;;;;;;7.82;4.35;;;;;;;11.85;65.88;99821.53;4900377;29;20027;-93
2022/10/31 03:50:28;;;;;;;7.68;4.28;;;;;;;11.78;65.89;99815.56;4912207;29;20054;-94
2022/10/31 03:53:06;;;;;;;13.38;4.40;;;;;;;11.74;66.20;99819.84;4910488;29;20071;-94
2022/10/31 03:55:39;;;;;;;8.27;4.93;;;;;;;11.56;66.12;99806.84;4908716;29;20023;-93
2022/10/31 03:58:32;;;;;;;12.38;4.10;;;;;;;11.72;65.87;99830.94;4914758;29;20051;-94
2022/10/31 04:00:57;;;;;;;8.90;4.22;;;;;;;11.65;66.35;99816.06;4940584;29;20039;-94
2022/10/31 04:03:27;;;;;;;11.65;5.32;;;;;;;11.55;65.77;99832.19;4910335;29;20027;-94
2022/10/31 04:05:55;;;;;;;10.13;4.43;;;;;;;11.47;66.36;99834.31;4905908;29;20024;-94
2022/10/31 04:08:24;;;;;;;11.55;4.68;;;;;;;11.48;65.78;99819.78;4914432;29;20483;-94
2022/10/31 04:10:49;;;;;;;9.88;4.85;;;;;;;11.47;65.86;99828.13;4904932;29;20469;-94
2022/10/31 04:13:17;;;;;;;7.45;4.78;;;;;;;11.45;66.26;99843.75;4909931;29;20031;-94
2022/10/31 04:15:43;;;;;;;12.70;4.93;;;;;;;11.42;66.29;99834.31;4919122;29;20068;-95
2022/10/31 04:18:08;;;;;;;10.50;4.57;;;;;;;11.39;66.23;99829.41;4911173;29;20027;-94
2022/10/31 04:20:36;;;;;;;14.68;4.82;;;;;;;11.44;66.43;99837.53;4919860;29;20035;-93
2022/10/31 04:23:02;;;;;;;11.88;4.22;;;;;;;11.49;66.53;99839.44;4906359;29;20035;-94
2022/10/31 04:25:27;;;;;;;7.72;4.75;;;;;;;11.49;66.18;99834.88;4904077;29;20060;-94
2022/10/31 04:27:53;;;;;;;9.90;4.45;;;;;;;11.59;66.17;99846.78;4919412;29;20154;-94
2022/10/31 04:30:18;;;;;;;7.25;4.15;;;;;;;11.45;66.29;99836.47;4888672;29;20459;-94
2022/10/31 04:32:44;;;;;;;9.65;4.68;;;;;;;11.52;66.21;99850.53;4922451;29;20438;-94
2022/10/31 04:35:09;;;;;;;14.13;4.07;;;;;;;11.42;67.02;99842.41;4908059;29;20027;-93
2022/10/31 04:37:35;;;;;;;7.22;4.30;;;;;;;11.43;66.52;99848.59;4916407;29;20027;-95
2022/10/31 04:40:00;;;;;;;13.88;4.97;;;;;;;11.42;66.75;99839.69;4912036;29;20111;-95
2022/10/31 04:42:29;;;;;;;9.50;4.75;;;;;;;11.48;66.26;99851.31;4918748;29;20508;-95
2022/10/31 04:44:54;;;;;;;9.38;4.80;;;;;;;11.50;66.25;99858.06;4923958;29;20027;-95
2022/10/31 04:47:26;;;;;;;12.13;4.80;;;;;;;11.50;66.00;99857.28;4938743;29;20487;-93
2022/10/31 04:49:51;;;;;;;8.00;4.53;;;;;;;11.58;65.92;99858.63;4908908;29;20062;-94
2022/10/31 04:52:17;;;;;;;13.25;5.43;;;;;;;11.59;66.06;99857.56;4922559;29;20038;-93
2022/10/31 04:54:43;;;;;;;8.90;4.50;;;;;;;11.68;65.77;99861.38;4922700;29;20027;-95
2022/10/31 04:57:08;;;;;;;8.40;4.68;;;;;;;11.74;65.79;99868.41;4938964;29;20019;-94
2022/10/31 04:59:34;;;;;;;16.70;4.85;;;;;;;11.46;66.99;99856.16;4907275;29;20399;-94
2022/10/31 05:01:59;;;;;;;9.63;5.10;;;;;;;11.24;67.75;99869.78;4922411;29;20046;-94
2022/10/31 05:04:27;;;;;;;12.68;6.10;;;;;;;11.26;66.96;99870.34;4906960;29;20031;-95
2022/10/31 05:06:53;;;;;;;19.85;5.55;;;;;;;11.27;67.01;99874.69;4923459;29;20035;-95
2022/10/31 05:09:18;;;;;;;11.88;6.40;;;;;;;11.42;67.03;99895.50;4907606;29;20393;-93
2022/10/31 05:11:46;;;;;;;13.57;6.68;;;;;;;11.31;67.12;99886.56;4921587;29;20031;-91
2022/10/31 05:14:11;;;;;;;16.67;5.85;;;;;;;11.28;67.03;99876.28;4906022;29;20023;-90
2022/10/31 05:16:39;;;;;;;13.15;5.50;;;;;;;11.33;67.27;99887.91;4905703;29;20042;-90
2022/10/31 05:19:05;;;;;;;61.53;8.52;;;;;;;11.22;67.72;99888.09;4921742;29;20406;-93
2022/10/31 05:21:31;;;;;;;10.65;6.10;;;;;;;11.18;67.96;99897.78;4921323;29;20032;-90
2022/10/31 05:24:01;;;;;;;17.27;5.57;;;;;;;11.06;68.27;99889.88;4928217;29;20027;-96
2022/10/31 05:26:27;;;;;;;12.15;6.00;;;;;;;10.91;68.78;99888.72;4931927;29;20035;-95
2022/10/31 05:28:52;;;;;;;12.98;5.30;;;;;;;11.00;68.89;99902.53;4929631;29;20383;-96
2022/10/31 05:31:21;;;;;;;11.15;6.53;;;;;;;11.11;68.68;99906.91;4930984;29;20046;-96
2022/10/31 05:33:46;;;;;;;16.25;6.57;;;;;;;11.08;68.51;99899.34;4920097;29;20059;-96
2022/10/31 05:36:12;;;;;;;12.75;6.05;;;;;;;11.15;68.00;99890.22;4921011;29;20031;-96
2022/10/31 05:38:38;;;;;;;11.52;6.10;;;;;;;11.25;67.96;99898.38;4928915;29;20081;-96
2022/10/31 05:41:03;;;;;;;10.85;6.20;;;;;;;11.09;68.39;99894.75;4931219;29;20027;-96
2022/10/31 05:43:29;;;;;;;16.10;6.75;;;;;;;11.21;68.14;99908.88;4927445;29;20105;-95
2022/10/31 05:45:58;;;;;;;16.00;6.32;;;;;;;11.23;67.98;99901.34;4927064;29;20071;-96
2022/10/31 05:48:23;;;;;;;17.95;8.00;;;;;;;11.20;68.10;99901.03;4931304;29;20031;-95
2022/10/31 05:50:49;;;;;;;23.38;10.10;;;;;;;11.20;68.66;99912.63;4928600;29;20035;-93
2022/10/31 05:53:17;;;;;;;17.38;10.65;;;;;;;11.34;68.43;99929.16;4912724;29;20027;-93
2022/10/31 05:55:46;;;;;;;13.25;7.20;;;;;;;11.43;67.63;99932.97;4913238;29;20086;-94
2022/10/31 05:58:12;;;;;;;17.08;7.72;;;;;;;11.30;67.73;99919.97;4927173;29;20023;-93
2022/10/31 06:00:37;;;;;;;18.25;7.57;;;;;;;11.31;67.28;99914.31;4926255;29;20038;-91
2022/10/31 06:03:04;;;;;;;18.90;7.90;;;;;;;11.34;67.59;99921.06;4936349;29;20027;-90
2022/10/31 06:05:30;;;;;;;13.45;8.20;;;;;;;11.28;67.91;99928.31;4913174;29;20486;-90
2022/10/31 06:07:56;;;;;;;12.80;7.68;;;;;;;11.38;67.55;99924.88;4895514;29;20027;-92
2022/10/31 06:10:22;;;;;;;17.80;8.00;;;;;;;11.42;67.55;99914.38;4913953;29;20138;-93
2022/10/31 06:12:48;;;;;;;22.88;9.00;;;;;;;11.54;67.40;99920.41;4906030;29;20035;-92
2022/10/31 06:15:13;;;;;;;18.23;8.65;;;;;;;11.58;66.76;99928.75;4921668;29;20091;-94
2022/10/31 06:17:39;;;;;;;21.52;9.60;;;;;;;11.77;66.34;99939.94;4937760;29;20135;-93
2022/10/31 06:20:08;;;;;;;11.80;7.35;;;;;;;11.78;65.96;99919.97;4939698;29;20023;-93
2022/10/31 06:22:33;;;;;;;17.20;8.20;;;;;;;11.98;65.48;99930.88;4913848;29;20043;-96
2022/10/31 06:24:59;;;;;;;17.10;7.53;;;;;;;12.07;65.10;99931.97;4911856;29;20035;-93
2022/10/31 06:27:25;;;;;;;17.15;7.25;;;;;;;12.17;64.11;99950.13;4892110;29;20038;-96
2022/10/31 06:29:53;;;;;;;25.55;8.50;;;;;;;12.37;64.45;99952.06;4893846;29;20039;-96
2022/10/31 06:32:21;;;;;;;18.67;7.78;;;;;;;12.34;63.93;99937.19;4896148;29;20027;-91
2022/10/31 06:34:49;;;;;;;11.05;6.70;;;;;;;12.38;63.64;99942.06;4906022;29;20114;-93
2022/10/31 06:37:15;;;;;;;14.70;7.25;;;;;;;12.54;62.41;99947.25;4907874;29;20028;-93
2022/10/31 06:39:41;;;;;;;16.75;6.75;;;;;;;12.65;62.16;99942.66;4924024;29;20037;-93
2022/10/31 06:42:06;;;;;;;11.68;5.82;;;;;;;12.71;62.05;99944.28;4911089;29;20035;-95
2022/10/31 06:44:32;;;;;;;25.10;10.55;;;;;;;12.90;62.43;99955.38;4908528;29;20103;-92
2022/10/31 06:46:57;;;;;;;9.20;5.57;;;;;;;12.93;61.78;99943.25;4905995;29;20059;-94
2022/10/31 06:49:23;;;;;;;13.55;5.65;;;;;;;13.03;61.34;99953.22;4907830;29;20036;-94
2022/10/31 06:51:54;;;;;;;9.63;5.38;;;;;;;13.05;60.91;99951.06;4919219;29;20027;-93
2022/10/31 06:54:21;;;;;;;10.40;5.80;;;;;;;13.26;60.46;99954.56;4929082;29;20030;-93
2022/10/31 06:56:49;;;;;;;14.32;5.70;;;;;;;13.30;60.34;99958.38;4913390;29;20107;-94
2022/10/31 06:59:18;;;;;;;8.55;5.43;;;;;;;13.39;60.00;99967.59;4900671;29;20023;-96
2022/10/31 07:01:43;;;;;;;12.93;5.75;;;;;;;13.58;60.02;99980.56;4891554;29;20042;-92
2022/10/31 07:04:10;;;;;;;14.40;7.45;;;;;;;13.58;59.51;99948.09;4908352;29;20023;-92
2022/10/31 07:06:38;;;;;;;13.43;6.63;;;;;;;13.64;59.33;99945.09;4905929;29;20024;-90
2022/10/31 07:09:04;;;;;;;14.52;6.65;;;;;;;13.72;59.36;99947.22;4890921;29;20027;-95
2022/10/31 07:11:29;;;;;;;13.73;6.70;;;;;;;13.83;58.55;99944.50;4893142;29;20106;-93
2022/10/31 07:13:55;;;;;;;11.30;5.97;;;;;;;13.83;58.86;99948.00;4913339;29;20039;-93
2022/10/31 07:16:26;;;;;;;11.10;5.57;;;;;;;13.91;58.50;99952.03;4918084;29;20023;-94
2022/10/31 07:18:55;;;;;;;12.53;6.37;;;;;;;13.95;58.01;99943.09;4911703;29;20047;-94
2022/10/31 07:21:23;;;;;;;10.02;6.10;;;;;;;14.20;57.64;99960.31;4913845;29;20114;-94
2022/10/31 07:23:49;;;;;;;17.65;7.65;;;;;;;14.22;57.16;99946.50;4915501;29;20086;-94
2022/10/31 07:26:15;;;;;;;9.02;6.47;;;;;;;14.34;57.19;99947.78;4896103;29;20031;-96
2022/10/31 07:28:43;;;;;;;11.75;6.45;;;;;;;14.38;57.12;99933.69;4911078;29;20078;-94
2022/10/31 07:31:11;;;;;;;8.80;6.13;;;;;;;14.49;56.86;99936.06;4909278;29;20466;-93
2022/10/31 07:33:37;;;;;;;14.60;7.53;;;;;;;14.62;57.12;99950.91;4921684;29;20032;-94
2022/10/31 07:36:59;;;;;;;;;;;;;;;;;;;;;
2022/10/31 07:40:08;;;;;;;13.77;7.38;;;;;;;14.86;56.96;99963.78;4923609;29;20523;-93
2022/10/31 07:42:53;;;;;;;13.60;7.68;;;;;;;14.92;55.98;99947.19;4916835;29;20127;-94
2022/10/31 07:45:29;;;;;;;12.82;7.90;;;;;;;14.95;55.79;99927.63;4880471;29;20424;-95
2022/10/31 07:47:54;;;;;;;12.35;7.45;;;;;;;15.18;55.11;99944.25;4875234;29;20060;-95
2022/10/31 07:50:25;;;;;;;18.80;7.43;;;;;;;15.29;55.04;99944.97;4895819;29;20060;-93
2022/10/31 07:53:20;;;;;;;15.77;7.40;;;;;;;15.34;55.11;99926.72;4909187;29;20041;-96
2022/10/31 07:55:48;;;;;;;17.27;8.57;;;;;;;15.63;54.13;99941.38;4907920;29;20029;-94
2022/10/31 07:58:14;;;;;;;15.23;8.55;;;;;;;15.64;54.74;99924.78;4905304;29;20042;-94
2022/10/31 08:00:41;;;;;;;20.33;8.25;;;;;;;15.76;54.33;99927.94;4905304;29;20032;-93
2022/10/31 08:03:09;;;;;;;21.20;9.15;;;;;;;15.89;53.71;99928.34;4904527;29;20051;-91
2022/10/31 08:05:38;;;;;;;18.50;7.72;;;;;;;16.04;53.40;99927.34;4913220;29;20034;-95
2022/10/31 08:08:04;;;;;;;11.90;7.40;;;;;;;16.16;52.88;99938.59;4926172;29;20039;-92
2022/10/31 08:10:42;;;;;;;13.90;7.05;;;;;;;16.17;52.63;99923.94;4919474;29;20047;-94
2022/10/31 08:13:10;;;;;;;20.77;7.32;;;;;;;16.41;52.52;99945.59;4927856;29;20027;-92
2022/10/31 08:15:41;;;;;;;10.77;6.20;;;;;;;16.41;52.01;99929.28;4909331;29;20048;-93
2022/10/31 08:18:10;;;;;;;7.13;5.43;;;;;;;16.52;51.68;99938.94;4927251;29;20019;-94
2022/10/31 08:20:45;;;;;;;12.38;5.88;;;;;;;16.62;51.16;99923.56;4929754;29;20027;-96
2022/10/31 08:23:17;;;;;;;9.70;5.43;;;;;;;16.84;51.09;99936.59;4913196;29;20031;-94
2022/10/31 08:25:43;;;;;;;11.68;5.30;;;;;;;16.88;51.19;99922.09;4927820;29;20102;-92
2022/10/31 08:28:11;;;;;;;8.50;4.95;;;;;;;17.00;51.58;99921.63;4923531;29;20027;-94
2022/10/31 08:31:09;;;;;;;12.60;7.30;;;;;;;17.22;50.83;99933.78;4939976;29;20038;-94
2022/10/31 08:33:35;;;;;;;10.07;5.45;;;;;;;17.25;50.37;99927.75;4922560;29;20406;-92
2022/10/31 08:36:00;;;;;;;11.25;7.03;;;;;;;17.46;50.72;99930.91;4944988;29;20030;-94
2022/10/31 08:38:27;;;;;;;11.82;5.93;;;;;;;17.59;50.09;99943.72;4908877;29;20039;-92
2022/10/31 08:40:58;;;;;;;10.25;5.80;;;;;;;17.60;49.54;99914.56;4912225;29;20072;-93
2022/10/31 08:43:34;;;;;;;12.90;5.70;;;;;;;17.63;49.15;99897.63;4918480;29;20039;-91
2022/10/31 08:46:00;;;;;;;12.93;5.90;;;;;;;17.83;48.58;99923.69;4916074;29;20409;-92
2022/10/31 08:48:29;;;;;;;7.85;4.80;;;;;;;17.79;48.90;99909.84;4904837;29;20036;-91
2022/10/31 08:51:00;;;;;;;15.25;5.55;;;;;;;17.96;48.92;99931.84;4912934;29;20055;-93
2022/10/31 08:53:25;;;;;;;10.97;4.80;;;;;;;17.95;48.42;99915.78;4913627;29;20064;-92
2022/10/31 08:55:53;;;;;;;13.35;5.88;;;;;;;18.03;48.42;99914.28;4922417;29;20028;-92
2022/10/31 08:58:58;;;;;;;;;;;;;;;;;;;;;
2022/10/31 09:01:25;;;;;;;6.95;4.80;;;;;;;18.49;47.96;99943.25;4943422;29;20043;-88
2022/10/31 09:04:20;;;;;;;13.77;5.03;;;;;;;18.76;47.45;99951.38;4900190;29;20544;-92
2022/10/31 09:06:46;;;;;;;7.07;5.22;;;;;;;18.78;46.93;99931.97;4908825;29;20042;-92
2022/10/31 09:09:12;;;;;;;12.68;4.93;;;;;;;19.05;46.38;99942.00;4927146;29;20028;-91
2022/10/31 09:11:37;;;;;;;8.50;4.13;;;;;;;19.14;45.89;99928.38;4900209;29;20095;-91
2022/10/31 09:14:03;;;;;;;7.93;4.57;;;;;;;19.30;45.72;99932.34;4916580;29;20059;-90
2022/10/31 09:16:28;;;;;;;8.18;4.50;;;;;;;19.26;46.14;99914.13;4944890;29;20442;-93
2022/10/31 09:18:59;;;;;;;9.32;4.00;;;;;;;19.41;45.57;99921.16;4921707;29;20050;-91
2022/10/31 09:21:28;;;;;;;10.93;5.55;;;;;;;19.44;45.37;99913.13;4922236;29;20031;-91
2022/10/31 09:24:01;;;;;;;6.55;4.40;;;;;;;19.51;45.12;99916.22;4906880;29;20054;-91
2022/10/31 09:26:30;;;;;;;16.10;4.55;;;;;;;19.70;44.57;99940.59;4916019;29;20072;-92
2022/10/31 09:29:00;;;;;;;9.77;4.57;;;;;;;19.53;44.87;99910.44;4908018;29;20031;-90
2022/10/31 09:31:57;;;;;;;6.53;4.05;;;;;;;19.59;43.94;99912.72;4913779;29;20028;-92
2022/10/31 09:34:26;;;;;;;10.30;3.42;;;;;;;19.71;43.65;99930.44;4924719;29;20041;-96
2022/10/31 09:40:05;;;;;;;8.38;3.20;;;;;;;19.68;43.68;99922.88;4932838;29;20051;-93
2022/10/31 09:42:47;;;;;;;6.50;3.33;;;;;;;19.78;44.18;99930.81;4933316;29;20036;-91
2022/10/31 09:45:52;;;;;;;8.00;3.80;;;;;;;19.68;43.39;99909.22;4911435;29;20020;-91
2022/10/31 09:48:41;;;;;;;7.93;4.03;;;;;;;19.68;44.03;99918.19;4919996;29;20047;-91
2022/10/31 09:51:10;;;;;;;7.68;3.42;;;;;;;19.77;44.36;99924.53;4916820;29;20039;-92
2022/10/31 09:53:57;;;;;;;6.20;4.30;;;;;;;19.88;44.10;99926.97;4914839;29;20028;-93
2022/10/31 09:56:23;;;;;;;9.15;3.92;;;;;;;19.66;44.11;99900.53;4939658;29;20107;-90
2022/10/31 09:58:55;;;;;;;7.65;3.65;;;;;;;19.77;44.33;99905.38;4905159;29;20055;-92
2022/10/31 10:01:40;;;;;;;;;;;;;;;19.82;44.03;99915.41;4906687;29;20032;-91
2022/10/31 10:04:48;;;;;;;6.50;3.58;;;;;;;19.79;43.96;99905.09;4892638;29;19911;-90
2022/10/31 10:07:30;;;;;;;6.82;4.05;;;;;;;19.90;43.76;99919.25;4920945;29;20042;-92
2022/10/31 10:09:57;;;;;;;5.95;3.05;;;;;;;19.88;43.69;99899.63;4915763;29;20039;-92
2022/10/31 10:12:44;;;;;;;8.77;4.53;;;;;;;19.91;44.08;99897.09;4896472;29;20099;-91
2022/10/31 10:15:31;;;;;;;12.07;5.60;;;;;;;19.89;44.02;99890.31;4932608;29;20046;-92
2022/10/31 10:18:28;;;;;;;6.15;3.38;;;;;;;19.98;44.11;99902.91;4937639;29;20031;-93
2022/10/31 10:21:16;;;;;;;7.43;3.38;;;;;;;19.98;44.04;99896.59;4948979;29;20054;-91
2022/10/31 10:23:57;;;;;;;8.95;3.90;;;;;;;20.09;43.66;99902.59;4904054;29;20425;-91
2022/10/31 10:26:29;;;;;;;9.65;4.13;;;;;;;19.99;43.78;99881.84;4948943;29;20094;-90
2022/10/31 10:29:55;;;;;;;8.80;3.80;;;;;;;20.00;43.23;99886.16;4913045;29;20036;-96
2022/10/31 10:32:30;;;;;;;7.15;3.70;;;;;;;20.07;42.93;99891.97;4941672;29;20037;-95
2022/10/31 10:35:11;;;;;;;5.70;3.40;;;;;;;20.14;42.99;99872.34;4917076;29;20050;-96
2022/10/31 10:37:39;;;;;;;7.20;3.97;;;;;;;20.34;43.21;99888.16;4931690;29;20030;-93
2022/10/31 10:40:19;;;;;;;10.85;4.78;;;;;;;20.37;42.18;99875.75;4913998;29;20090;-96
2022/10/31 10:48:44;;;;;;;9.85;3.83;;;;;;;20.75;41.13;99886.88;4932981;29;20170;-95
2022/10/31 10:55:47;;;;;;;8.32;3.33;;;;;;;21.16;41.26;99888.22;4819584;29;20054;-93
2022/10/31 10:58:13;;;;;;;33.08;20.17;;;;;;;21.17;40.49;99870.66;4812850;29;20034;-91
2022/10/31 11:00:49;;;;;;;13.55;7.68;;;;;;;21.31;40.80;99875.13;4871101;29;20046;-91
2022/10/31 11:03:15;;;;;;;7.78;3.70;;;;;;;21.35;40.01;99873.34;4930698;29;20066;-93
2022/10/31 11:06:10;;;;;;;;;;;;;;;;;;;;;
2022/10/31 11:09:27;;;;;;;9.25;5.38;;;;;;;21.67;40.16;99884.84;4928687;29;20036;-94
2022/10/31 11:11:56;;;;;;;7.43;3.40;;;;;;;21.61;39.51;99864.25;4909068;29;20053;-92
2022/10/31 11:14:28;;;;;;;9.38;3.65;;;;;;;21.77;39.52;99882.53;4920308;29;20175;-91
2022/10/31 11:16:55;;;;;;;;;;;;;;;21.89;38.87;99879.06;4893169;29;20045;-92
2022/10/31 11:19:26;;;;;;;6.90;4.00;;;;;;;21.87;39.00;99864.91;4898279;29;20398;-92
2022/10/31 11:21:51;;;;;;;7.03;3.63;;;;;;;21.85;38.65;99869.09;4896930;29;20451;-89
2022/10/31 11:24:19;;;;;;;11.88;4.28;;;;;;;21.82;39.14;99856.84;4879274;29;20044;-92
2022/10/31 11:26:49;;;;;;;7.50;3.92;;;;;;;21.77;38.70;99846.91;4880046;29;20156;-90
2022/10/31 11:29:44;;;;;;;6.00;3.78;;;;;;;21.78;38.69;99847.69;4897543;29;20096;-91
2022/10/31 11:32:38;;;;;;;;;;;;;;;;;;;;;
2022/10/31 11:35:18;;;;;;;9.63;3.70;;;;;;;21.91;39.10;99843.88;4844121;29;20129;-94
2022/10/31 11:37:50;;;;;;;6.65;3.92;;;;;;;21.96;38.84;99862.91;4826832;29;20034;-94
2022/10/31 11:40:36;;;;;;;8.40;3.38;;;;;;;21.64;38.82;99830.69;4828354;29;20038;-95
2022/10/31 11:50:21;;;;;;;6.13;3.00;;;;;;;21.45;39.55;99831.09;4808402;29;20557;-96
2022/10/31 11:52:56;;;;;;;9.13;3.25;;;;;;;21.52;38.96;99845.91;4776347;29;20115;-94
2022/10/31 11:55:38;;;;;;;5.93;3.63;;;;;;;21.44;40.16;99835.00;4819459;29;20525;-95
2022/10/31 11:58:04;;;;;;;6.28;3.58;;;;;;;21.47;39.78;99829.63;4867665;29;20033;-93
2022/10/31 12:00:33;;;;;;;6.90;3.65;;;;;;;21.50;40.24;99834.47;4867762;29;20784;-93
2022/10/31 12:03:34;;;;;;;19.38;4.03;;;;;;;21.36;40.00;99820.16;4864489;29;20036;-92
2022/10/31 12:06:35;;;;;;;28.38;5.32;;;;;;;21.37;40.18;99827.25;4919111;29;20129;-92
2022/10/31 12:09:04;;;;;;;20.23;4.47;;;;;;;21.20;40.45;99822.66;4907526;29;20036;-95
2022/10/31 12:15:01;;;;;;;6.15;3.28;;;;;;;21.05;40.23;99829.47;4913585;29;20096;-96
2022/10/31 12:21:05;;;;;;;5.95;3.50;;;;;;;21.07;40.77;99829.94;4822759;29;20029;-91
2022/10/31 12:23:33;;;;;;;5.75;3.47;;;;;;;21.07;40.52;99843.63;4905596;29;20127;-91